Time;durP1;ratioP1;P1;durP2;ratioP2;P2;SDS_P1;SDS_P2;PMS_P1;PMS_P2;Temp;Humidity;BMP_temperature;BMP_pressure;BME280_temperature;BME280_humidity;BME280_pressure;Samples;Min_cycle;Max_cycle;Signal;HPM_P1;HPM_P2
2021/04/17 00:02:17;;;;;;;23.58;12.65;;;;;;;2.49;83.97;98739.28;5114306;28;20821;-76
2021/04/17 00:04:43;;;;;;;;;;;;;;;2.48;84.10;98739.53;5110749;28;20468;-77
2021/04/17 00:07:14;;;;;;;23.17;12.80;;;;;;;2.47;83.93;98733.28;5045411;28;19924;-76
2021/04/17 00:09:40;;;;;;;25.27;12.82;;;;;;;2.48;83.62;98725.97;4991136;28;20038;-76
2021/04/17 00:12:15;;;;;;;21.45;11.43;;;;;;;2.45;83.31;98740.81;5008900;28;20496;-76
2021/04/17 00:14:41;;;;;;;22.33;13.10;;;;;;;2.43;83.26;98726.72;5009192;28;20037;-77
2021/04/17 00:17:07;;;;;;;20.92;13.35;;;;;;;2.47;83.29;98733.28;5033251;28;20014;-77
2021/04/17 00:19:34;;;;;;;18.30;10.60;;;;;;;2.47;83.38;98733.28;5009581;28;20037;-77
2021/04/17 00:22:00;;;;;;;27.33;14.40;;;;;;;2.46;83.58;98733.53;5009113;28;20029;-77
2021/04/17 00:24:25;;;;;;;21.13;13.95;;;;;;;2.47;83.74;98732.47;5011596;28;20034;-76
2021/04/17 00:26:51;;;;;;;25.13;14.38;;;;;;;2.48;83.39;98725.97;5009413;28;20032;-75
2021/04/17 00:29:17;;;;;;;18.38;12.38;;;;;;;2.48;83.74;98731.41;5008983;28;20026;-76
2021/04/17 00:31:42;;;;;;;24.50;14.85;;;;;;;2.43;83.71;98732.13;5006504;28;20105;-76
2021/04/17 00:34:08;;;;;;;21.20;12.75;;;;;;;2.45;83.31;98723.75;5039165;28;20019;-76
2021/04/17 00:36:34;;;;;;;21.05;12.75;;;;;;;2.41;83.74;98727.97;5045957;28;20751;-76
2021/04/17 00:39:00;;;;;;;20.70;12.02;;;;;;;2.40;83.86;98731.75;5010705;28;20055;-76
2021/04/17 00:41:25;;;;;;;21.50;13.55;;;;;;;2.41;84.04;98728.81;5011208;28;20041;-76
2021/04/17 00:43:51;;;;;;;21.42;13.15;;;;;;;2.41;83.55;98726.13;5009010;28;20049;-77
2021/04/17 00:46:18;;;;;;;23.00;13.82;;;;;;;2.41;82.92;98730.69;5022007;28;20011;-76
2021/04/17 00:48:43;;;;;;;23.05;13.88;;;;;;;2.44;83.82;98732.94;5012798;28;20034;-76
2021/04/17 00:51:10;;;;;;;20.58;12.95;;;;;;;2.50;83.40;98737.41;5009415;28;20036;-77
2021/04/17 00:53:36;;;;;;;18.83;11.77;;;;;;;2.51;83.87;98734.44;5008860;28;20087;-76
2021/04/17 00:56:07;;;;;;;18.90;11.60;;;;;;;2.53;83.92;98739.63;5023645;28;20061;-75
2021/04/17 00:58:34;;;;;;;19.48;12.35;;;;;;;2.49;83.17;98730.34;5012879;28;20027;-76
2021/04/17 01:01:00;;;;;;;17.50;12.18;;;;;;;2.46;83.38;98728.09;5002190;28;20022;-75
2021/04/17 01:03:32;;;;;;;17.40;11.32;;;;;;;2.44;83.20;98732.94;5008271;28;20084;-75
2021/04/17 01:06:03;;;;;;;20.85;12.18;;;;;;;2.46;83.99;98731.63;5005250;28;20438;-77
2021/04/17 01:08:41;;;;;;;15.65;9.98;;;;;;;2.42;83.59;98730.47;5013704;28;20505;-76
2021/04/17 01:11:13;;;;;;;14.32;9.23;;;;;;;2.39;83.70;98728.22;5018548;28;20026;-75
2021/04/17 01:13:42;;;;;;;17.27;10.25;;;;;;;2.40;83.10;98729.88;5006030;28;20358;-75
2021/04/17 01:16:08;;;;;;;13.32;8.40;;;;;;;2.41;83.40;98733.41;4992630;28;20111;-75
2021/04/17 01:18:35;;;;;;;10.73;7.20;;;;;;;2.40;83.88;98731.75;5024696;28;20883;-76
2021/04/17 01:21:02;;;;;;;16.63;9.82;;;;;;;2.37;83.44;98739.28;5008093;28;20083;-76
2021/04/17 01:23:37;;;;;;;21.30;11.60;;;;;;;2.34;83.17;98737.03;4993097;28;20038;-76
2021/04/17 01:26:08;;;;;;;21.83;11.73;;;;;;;2.34;83.63;98737.03;5001736;28;20047;-75
2021/04/17 01:28:37;;;;;;;21.58;11.63;;;;;;;2.32;83.27;98735.66;5009887;28;20033;-77
2021/04/17 01:31:04;;;;;;;21.08;11.55;;;;;;;2.27;83.09;98728.22;5008873;28;20026;-76
2021/04/17 01:33:34;;;;;;;17.20;11.07;;;;;;;2.25;83.11;98733.03;5012073;28;20030;-77
2021/04/17 01:36:04;;;;;;;18.20;10.95;;;;;;;2.24;83.32;98726.00;5005694;28;20501;-76
2021/04/17 01:38:52;;;;;;;18.52;10.90;;;;;;;2.23;83.17;98738.69;5011524;28;20539;-75
2021/04/17 01:41:20;;;;;;;17.88;11.32;;;;;;;2.27;83.00;98730.91;5005865;28;20053;-76
2021/04/17 01:43:50;;;;;;;18.17;11.15;;;;;;;2.32;83.42;98736.47;5019382;28;20104;-77
2021/04/17 01:46:19;;;;;;;16.83;10.43;;;;;;;2.32;83.16;98733.75;5008766;28;20030;-76
2021/04/17 01:48:46;;;;;;;14.20;10.18;;;;;;;2.30;82.58;98724.22;5022760;28;20054;-76
2021/04/17 01:51:12;;;;;;;14.93;10.05;;;;;;;2.33;83.41;98726.47;4990759;28;20425;-76
2021/04/17 01:53:40;;;;;;;13.57;9.05;;;;;;;2.34;83.23;98728.13;5012494;28;20056;-77
2021/04/17 01:56:07;;;;;;;15.15;10.13;;;;;;;2.31;83.20;98723.16;5007661;28;20211;-76
2021/04/17 01:58:38;;;;;;;15.82;10.55;;;;;;;2.33;83.41;98731.88;5001148;28;20032;-76
2021/04/17 02:01:04;;;;;;;15.25;10.77;;;;;;;2.28;83.00;98727.16;5006008;28;20029;-77
2021/04/17 02:03:30;;;;;;;14.85;9.73;;;;;;;2.29;83.29;98728.00;5016695;28;20489;-76
2021/04/17 02:05:56;;;;;;;15.77;9.48;;;;;;;2.32;83.43;98724.81;4994088;28;20046;-76
2021/04/17 02:08:22;;;;;;;13.70;9.50;;;;;;;2.30;83.22;98725.03;5009653;28;20044;-77
2021/04/17 02:10:50;;;;;;;16.90;9.65;;;;;;;2.30;83.17;98730.44;4990521;28;20037;-75
2021/04/17 02:13:16;;;;;;;15.93;10.00;;;;;;;2.30;83.60;98727.75;5008235;28;20159;-75
2021/04/17 02:15:42;;;;;;;15.73;9.65;;;;;;;2.31;83.59;98726.69;5009521;28;20034;-75
2021/04/17 02:18:43;;;;;;;13.93;9.85;;;;;;;2.35;83.86;98729.75;5013726;28;20492;-75
2021/04/17 02:21:10;;;;;;;15.20;9.68;;;;;;;2.38;83.25;98729.28;5016766;28;20512;-75
2021/04/17 02:23:36;;;;;;;15.77;9.70;;;;;;;2.39;83.06;98736.34;5013186;28;20105;-75
2021/04/17 02:26:03;;;;;;;13.70;9.63;;;;;;;2.40;83.41;98721.75;5012800;28;20546;-74
2021/04/17 02:28:30;;;;;;;15.57;10.23;;;;;;;2.39;83.46;98722.81;5017864;28;20041;-75
2021/04/17 02:30:56;;;;;;;13.57;9.05;;;;;;;2.37;83.90;98722.22;4998419;28;20021;-75
2021/04/17 02:33:23;;;;;;;15.77;10.43;;;;;;;2.41;83.19;98717.16;5011547;28;20533;-75
2021/04/17 02:35:49;;;;;;;16.77;9.07;;;;;;;2.44;83.17;98722.09;5017808;28;20037;-75
2021/04/17 02:38:16;;;;;;;14.82;9.57;;;;;;;2.42;83.30;98721.50;5010860;28;20030;-75
2021/04/17 02:40:41;;;;;;;14.65;10.02;;;;;;;2.41;83.35;98717.16;5022852;28;20038;-75
2021/04/17 02:43:07;;;;;;;13.35;8.73;;;;;;;2.44;83.60;98716.69;5010980;28;20377;-75
2021/04/17 02:45:32;;;;;;;11.77;8.20;;;;;;;2.42;83.21;98714.22;4994945;28;20443;-74
2021/04/17 02:47:57;;;;;;;13.52;9.60;;;;;;;2.41;83.10;98711.75;5012691;28;20521;-75
2021/04/17 02:50:23;;;;;;;12.02;8.70;;;;;;;2.42;83.02;98716.94;5015767;28;20041;-75
2021/04/17 02:52:49;;;;;;;9.73;7.05;;;;;;;2.39;82.97;98717.41;5014212;28;20030;-75
2021/04/17 02:55:15;;;;;;;11.85;7.93;;;;;;;2.36;82.94;98713.28;5023809;28;20389;-75
2021/04/17 02:57:41;;;;;;;13.32;8.38;;;;;;;2.37;83.17;98712.22;5020135;28;20765;-75
2021/04/17 03:00:08;;;;;;;12.18;8.05;;;;;;;2.41;82.88;98711.75;5020338;28;20033;-75
2021/04/17 03:02:33;;;;;;;12.00;8.27;;;;;;;2.43;83.37;98710.47;5011143;28;20437;-75
2021/04/17 03:04:59;;;;;;;10.82;6.97;;;;;;;2.48;83.31;98717.88;5010196;28;20026;-75
2021/04/17 03:07:25;;;;;;;11.35;8.27;;;;;;;2.46;83.01;98714.56;5020336;28;20065;-75
2021/04/17 03:09:50;;;;;;;10.63;7.70;;;;;;;2.44;83.42;98713.97;5017301;28;20130;-76
2021/04/17 03:12:16;;;;;;;12.90;7.97;;;;;;;2.43;83.61;98715.03;4993399;28;20492;-75
2021/04/17 03:14:41;;;;;;;10.82;7.13;;;;;;;2.43;83.13;98713.16;5010148;28;20522;-75
2021/04/17 03:17:08;;;;;;;11.55;7.45;;;;;;;2.44;82.82;98716.69;5019220;28;20038;-75
2021/04/17 03:19:33;;;;;;;10.07;7.13;;;;;;;2.42;83.19;98718.81;4993020;28;20125;-75
2021/04/17 03:21:58;;;;;;;10.85;7.30;;;;;;;2.41;83.61;98715.28;5010344;28;20104;-76
2021/04/17 03:24:24;;;;;;;9.27;6.70;;;;;;;2.40;82.50;98723.63;5010374;28;20110;-76
2021/04/17 03:26:49;;;;;;;9.55;6.15;;;;;;;2.34;82.82;98722.69;5016176;28;20036;-75
2021/04/17 03:29:15;;;;;;;13.20;7.47;;;;;;;2.31;83.28;98715.84;5010063;28;20026;-75
2021/04/17 03:31:41;;;;;;;11.00;7.47;;;;;;;2.28;83.12;98724.44;5007944;28;20037;-75
2021/04/17 03:34:07;;;;;;;10.32;7.18;;;;;;;2.27;82.96;98722.81;5014769;28;20026;-76
2021/04/17 03:36:33;;;;;;;10.43;7.00;;;;;;;2.26;83.01;98713.03;5013425;28;20051;-75
2021/04/17 03:38:58;;;;;;;10.85;7.35;;;;;;;2.32;83.24;98722.91;5010560;28;20420;-75
2021/04/17 03:41:23;;;;;;;12.32;7.90;;;;;;;2.37;83.24;98722.22;5010143;28;20481;-75
2021/04/17 03:43:49;;;;;;;9.85;6.55;;;;;;;2.35;83.45;98730.56;5017881;28;20101;-75
2021/04/17 03:46:14;;;;;;;11.48;7.53;;;;;;;2.36;83.01;98732.22;5025734;28;20026;-75
2021/04/17 03:48:40;;;;;;;16.40;9.52;;;;;;;2.36;83.69;98723.28;5009984;28;20113;-75
2021/04/17 03:51:05;;;;;;;20.95;10.50;;;;;;;2.37;83.36;98724.94;5009691;28;20036;-76
2021/04/17 03:53:31;;;;;;;14.95;8.77;;;;;;;2.40;83.43;98729.03;5010726;28;20030;-75
2021/04/17 03:55:56;;;;;;;13.25;8.48;;;;;;;2.43;83.13;98737.53;5026451;28;20054;-75
2021/04/17 03:58:21;;;;;;;15.18;9.18;;;;;;;2.40;83.66;98727.19;5011400;28;20385;-75
2021/04/17 04:00:47;;;;;;;13.35;7.90;;;;;;;2.37;82.87;98731.16;5023535;28;20074;-74
2021/04/17 04:03:12;;;;;;;11.43;7.30;;;;;;;2.33;82.89;98738.09;5009312;28;20026;-74
2021/04/17 04:05:38;;;;;;;8.38;6.05;;;;;;;2.30;83.38;98727.75;5011403;28;20034;-75
2021/04/17 04:08:03;;;;;;;9.98;6.95;;;;;;;2.25;83.06;98732.22;5009400;28;20062;-75
2021/04/17 04:10:29;;;;;;;10.10;7.18;;;;;;;2.28;83.49;98734.47;4999713;28;20053;-75
2021/04/17 04:12:54;;;;;;;10.98;7.63;;;;;;;2.25;83.00;98730.31;5011467;28;20394;-75
2021/04/17 04:15:20;;;;;;;10.90;7.45;;;;;;;2.32;83.92;98738.34;5010952;28;20022;-75
2021/04/17 04:17:46;;;;;;;11.30;7.85;;;;;;;2.36;83.76;98740.34;5008405;28;20033;-75
2021/04/17 04:20:12;;;;;;;15.82;8.80;;;;;;;2.40;83.09;98731.75;5001909;28;20022;-75
2021/04/17 04:22:37;;;;;;;9.80;6.18;;;;;;;2.42;83.47;98732.34;4973576;28;20070;-75
2021/04/17 04:25:04;;;;;;;13.32;8.02;;;;;;;2.38;82.95;98743.63;5035868;28;20092;-75
2021/04/17 04:27:30;;;;;;;10.73;7.30;;;;;;;2.41;83.35;98736.09;5093014;28;20421;-75
2021/04/17 04:29:55;;;;;;;10.10;7.22;;;;;;;2.37;83.46;98739.28;5046351;28;20087;-75
2021/04/17 04:32:21;;;;;;;12.23;8.85;;;;;;;2.38;83.57;98742.81;5010427;28;20034;-76
2021/04/17 04:34:47;;;;;;;14.00;8.60;;;;;;;2.40;82.86;98739.88;5012140;28;20030;-75
2021/04/17 04:37:12;;;;;;;14.52;9.70;;;;;;;2.41;82.96;98749.66;5010296;28;20112;-75
2021/04/17 04:39:37;;;;;;;12.13;8.60;;;;;;;2.38;83.52;98734.72;5016750;28;20026;-75
2021/04/17 04:42:03;;;;;;;10.15;7.05;;;;;;;2.36;83.69;98743.03;5080684;28;20122;-75
2021/04/17 04:44:29;;;;;;;13.80;7.10;;;;;;;2.36;82.93;98734.94;5095411;28;20028;-75
2021/04/17 04:46:55;;;;;;;12.70;7.15;;;;;;;2.35;83.55;98737.88;5030762;28;20026;-75
2021/04/17 04:49:20;;;;;;;9.77;7.10;;;;;;;2.30;83.39;98733.16;5109872;28;20035;-75
2021/04/17 04:51:45;;;;;;;8.55;5.97;;;;;;;2.30;83.05;98733.16;5058968;28;20034;-75
2021/04/17 04:54:11;;;;;;;10.77;6.85;;;;;;;2.30;83.57;98735.88;5084880;28;20111;-75
2021/04/17 04:56:36;;;;;;;8.75;6.05;;;;;;;2.32;83.11;98735.66;5105751;28;20047;-75
2021/04/17 04:59:02;;;;;;;9.35;6.35;;;;;;;2.31;83.39;98737.50;5104837;28;20027;-75
2021/04/17 05:01:27;;;;;;;10.85;6.20;;;;;;;2.32;83.39;98736.47;5057103;28;20038;-75
2021/04/17 05:03:53;;;;;;;10.23;6.47;;;;;;;2.30;82.60;98740.47;5042876;28;20048;-75
2021/04/17 05:06:18;;;;;;;9.45;6.55;;;;;;;2.26;83.47;98742.81;4992661;28;20073;-75
2021/04/17 05:08:44;;;;;;;10.35;6.82;;;;;;;2.26;82.97;98742.00;5012851;28;20124;-75
2021/04/17 05:11:09;;;;;;;9.75;6.28;;;;;;;2.27;83.00;98741.75;5042170;28;20020;-75
2021/04/17 05:13:35;;;;;;;11.48;7.60;;;;;;;2.30;83.16;98738.56;5083811;28;20030;-75
2021/04/17 05:16:00;;;;;;;10.45;6.07;;;;;;;2.31;83.26;98742.94;5013253;28;20402;-76
2021/04/17 05:18:25;;;;;;;6.85;4.85;;;;;;;2.32;83.28;98744.56;5014679;28;20037;-75
2021/04/17 05:20:51;;;;;;;8.90;6.25;;;;;;;2.32;83.91;98736.47;5037252;28;20039;-75
2021/04/17 05:23:16;;;;;;;8.80;6.05;;;;;;;2.33;83.01;98737.28;5093827;28;20028;-75
2021/04/17 05:25:42;;;;;;;9.60;5.63;;;;;;;2.35;83.16;98738.69;5020468;28;20066;-74
2021/04/17 05:28:10;;;;;;;25.30;10.25;;;;;;;2.37;83.74;98742.00;5079595;28;20024;-75
2021/04/17 05:30:35;;;;;;;21.30;8.10;;;;;;;2.35;83.52;98738.69;5023590;28;20036;-75
2021/04/17 05:33:01;;;;;;;11.27;7.78;;;;;;;2.37;82.82;98743.88;5106336;28;20114;-75
2021/04/17 05:35:26;;;;;;;7.93;5.30;;;;;;;2.37;83.80;98739.28;5070453;28;20033;-74
2021/04/17 05:37:52;;;;;;;36.40;20.45;;;;;;;2.41;83.87;98741.53;5014350;28;20121;-75
2021/04/17 05:40:17;;;;;;;23.20;13.52;;;;;;;2.41;83.40;98742.38;5008696;28;20066;-76
2021/04/17 05:42:42;;;;;;;86.13;36.75;;;;;;;2.42;83.10;98743.16;5009659;28;20037;-75
2021/04/17 05:45:08;;;;;;;42.13;15.55;;;;;;;2.44;83.02;98749.19;5084191;28;20056;-75
2021/04/17 05:47:33;;;;;;;62.75;23.17;;;;;;;2.45;83.64;98746.22;5041786;28;20090;-75
2021/04/17 05:49:59;;;;;;;138.88;41.60;;;;;;;2.50;83.63;98750.94;5008717;28;20033;-75
2021/04/17 05:52:24;;;;;;;70.85;25.67;;;;;;;2.55;83.32;98755.63;5087177;28;20042;-75
2021/04/17 05:54:50;;;;;;;39.28;13.80;;;;;;;2.59;83.07;98751.41;5114976;28;20482;-75
2021/04/17 05:57:15;;;;;;;102.65;32.03;;;;;;;2.56;83.09;98747.28;5016388;28;20564;-75
2021/04/17 05:59:40;;;;;;;22.05;11.05;;;;;;;2.57;83.47;98758.94;5041669;28;20429;-74
2021/04/17 06:02:08;;;;;;;82.63;24.40;;;;;;;2.58;83.25;98752.47;5074582;28;20032;-74
2021/04/17 06:04:33;;;;;;;46.33;15.75;;;;;;;2.63;83.20;98750.72;5037516;28;20030;-74
2021/04/17 06:06:58;;;;;;;62.90;17.00;;;;;;;2.62;83.29;98750.94;5022767;28;20091;-74
2021/04/17 06:09:24;;;;;;;28.88;11.55;;;;;;;2.62;83.48;98750.94;5025883;28;20041;-74
2021/04/17 06:11:49;;;;;;;25.60;10.85;;;;;;;2.60;83.27;98753.88;5024073;28;20060;-73
2021/04/17 06:14:14;;;;;;;27.73;10.93;;;;;;;2.62;83.54;98759.06;5012887;28;20110;-73
2021/04/17 06:16:40;;;;;;;31.02;13.15;;;;;;;2.60;82.98;98753.88;5036865;28;20393;-73
2021/04/17 06:19:06;;;;;;;60.88;17.33;;;;;;;2.62;83.49;98753.63;5082753;28;20041;-73
2021/04/17 06:21:32;;;;;;;46.40;14.98;;;;;;;2.59;82.88;98749.53;5012512;28;20029;-74
2021/04/17 06:23:57;;;;;;;48.38;17.45;;;;;;;2.62;82.92;98751.78;5012524;28;20026;-73
2021/04/17 06:26:23;;;;;;;46.70;15.70;;;;;;;2.62;82.90;98751.78;4994131;28;20400;-73
2021/04/17 06:28:48;;;;;;;35.42;12.77;;;;;;;2.61;82.68;98754.69;5019194;28;20034;-75
2021/04/17 06:31:14;;;;;;;46.95;14.00;;;;;;;2.58;83.03;98753.31;5019186;28;20038;-75
2021/04/17 06:33:39;;;;;;;93.65;23.10;;;;;;;2.60;82.87;98758.47;5036438;28;20025;-76
2021/04/17 06:36:06;;;;;;;60.92;18.67;;;;;;;2.61;83.39;98755.53;5027104;28;20034;-75
2021/04/17 06:38:31;;;;;;;63.47;20.02;;;;;;;2.61;83.48;98750.13;4994899;28;20026;-76
2021/04/17 06:40:57;;;;;;;43.35;15.63;;;;;;;2.61;83.41;98747.41;5019057;28;20040;-78
2021/04/17 06:43:24;;;;;;;32.17;15.07;;;;;;;2.61;83.19;98752.81;5012249;28;20029;-79
2021/04/17 06:45:54;;;;;;;61.90;21.52;;;;;;;2.62;82.68;98750.94;5012943;28;20355;-77
2021/04/17 06:48:20;;;;;;;50.55;17.92;;;;;;;2.62;82.94;98757.19;5019622;28;20148;-76
2021/04/17 06:50:47;;;;;;;43.88;19.52;;;;;;;2.63;83.28;98748.00;5008844;28;20070;-78
2021/04/17 06:53:16;;;;;;;47.55;19.38;;;;;;;2.68;83.42;98755.41;5031010;28;20029;-78
2021/04/17 06:55:41;;;;;;;26.63;13.05;;;;;;;2.63;82.87;98752.56;5010781;28;20509;-77
2021/04/17 06:58:07;;;;;;;42.97;19.83;;;;;;;2.63;83.31;98753.41;5011844;28;20030;-79
2021/04/17 07:00:32;;;;;;;41.60;20.30;;;;;;;2.63;83.21;98744.44;5012085;28;20022;-79
2021/04/17 07:02:58;;;;;;;33.22;17.33;;;;;;;2.67;83.58;98753.75;5024938;28;20155;-77
2021/04/17 07:05:23;;;;;;;49.13;25.63;;;;;;;2.72;83.88;98761.16;5029828;28;20124;-77
2021/04/17 07:07:49;;;;;;;35.92;17.00;;;;;;;2.80;83.26;98758.09;5037180;28;20040;-78
2021/04/17 07:10:15;;;;;;;27.50;14.52;;;;;;;2.89;83.62;98750.41;5083443;28;20114;-77
2021/04/17 07:12:44;;;;;;;17.88;9.23;;;;;;;2.94;83.30;98753.22;5051602;28;20484;-77
2021/04/17 07:15:11;;;;;;;31.92;14.15;;;;;;;2.97;82.94;98755.47;5086632;28;20080;-77
2021/04/17 07:17:37;;;;;;;40.50;15.80;;;;;;;2.93;82.65;98748.88;5025755;28;20034;-78
2021/04/17 07:20:05;;;;;;;31.35;14.75;;;;;;;2.96;82.86;98751.09;4990093;28;20037;-78
2021/04/17 07:22:33;;;;;;;18.33;10.07;;;;;;;3.03;83.63;98756.41;4989118;28;20033;-77
2021/04/17 07:25:04;;;;;;;26.83;14.38;;;;;;;3.04;83.10;98763.47;4988527;28;20042;-76
2021/04/17 07:27:31;;;;;;;40.85;19.10;;;;;;;3.02;83.42;98758.28;4990555;28;20033;-80
2021/04/17 07:29:58;;;;;;;18.20;10.45;;;;;;;3.06;83.07;98764.88;5014257;28;20701;-81
2021/04/17 07:32:23;;;;;;;30.27;13.93;;;;;;;3.13;83.19;98768.28;4977191;28;20744;-81
2021/04/17 07:35:05;;;;;;;24.73;13.32;;;;;;;3.11;82.89;98769.56;4978310;28;20027;-80
2021/04/17 07:37:31;;;;;;;43.60;20.73;;;;;;;3.16;82.56;98771.56;4983048;28;20489;-79
2021/04/17 07:40:16;;;;;;;32.38;14.68;;;;;;;3.23;82.75;98764.94;4984632;28;20022;-79
2021/04/17 07:42:43;;;;;;;45.80;19.45;;;;;;;3.24;83.16;98774.72;4986560;28;20034;-82
2021/04/17 07:45:27;;;;;;;46.42;19.80;;;;;;;3.24;82.96;98766.59;4986651;28;20026;-81
2021/04/17 07:47:59;;;;;;;56.85;23.95;;;;;;;3.24;82.26;98769.31;4989377;28;20086;-82
2021/04/17 07:50:35;;;;;;;43.95;20.80;;;;;;;3.32;83.09;98770.00;4981551;28;20952;-82
2021/04/17 07:53:02;;;;;;;58.28;19.55;;;;;;;3.36;82.37;98773.88;4975984;28;20508;-83
2021/04/17 07:55:32;;;;;;;44.30;16.23;;;;;;;3.31;82.58;98774.56;4975076;28;20035;-81
2021/04/17 07:58:00;;;;;;;35.70;14.18;;;;;;;3.35;82.75;98770.31;4984748;28;20076;-81
2021/04/17 08:00:27;;;;;;;15.68;9.85;;;;;;;3.42;82.62;98784.56;4984115;28;20049;-82
2021/04/17 08:02:55;;;;;;;66.43;30.52;;;;;;;3.39;82.62;98781.53;4982880;28;20041;-80
2021/04/17 08:05:22;;;;;;;43.33;18.88;;;;;;;3.40;82.75;98778.56;4986820;28;20108;-80
2021/04/17 08:07:49;;;;;;;53.83;25.65;;;;;;;3.37;82.56;98776.31;4997484;28;20038;-81
2021/04/17 08:10:15;;;;;;;27.98;17.42;;;;;;;3.39;82.69;98781.53;4982876;28;20084;-81
2021/04/17 08:12:44;;;;;;;18.08;11.13;;;;;;;3.39;82.31;98784.25;4975188;28;20038;-81
2021/04/17 08:15:13;;;;;;;141.63;64.43;;;;;;;3.39;82.66;98781.53;4981023;28;20030;-81
2021/04/17 08:17:40;;;;;;;100.60;52.58;;;;;;;3.43;82.47;98785.41;4978959;28;20080;-80
2021/04/17 08:20:12;;;;;;;80.50;43.85;;;;;;;3.42;82.29;98781.84;4984148;28;20093;-82
2021/04/17 08:22:39;;;;;;;40.88;20.25;;;;;;;3.40;82.03;98792.13;4984393;28;20035;-81
2021/04/17 08:25:06;;;;;;;122.63;44.97;;;;;;;3.38;81.99;98790.72;4988123;28;20033;-81
2021/04/17 08:27:33;;;;;;;41.78;19.27;;;;;;;3.41;81.87;98792.94;4986504;28;20030;-81
2021/04/17 08:30:05;;;;;;;25.85;14.23;;;;;;;3.45;82.64;98798.72;4984991;28;20042;-80
2021/04/17 08:32:32;;;;;;;45.22;18.73;;;;;;;3.47;82.39;98799.28;4979657;28;20030;-80
2021/04/17 08:35:09;;;;;;;86.07;33.80;;;;;;;3.50;81.96;98798.81;4976463;28;20076;-81
2021/04/17 08:37:55;;;;;;;79.75;31.70;;;;;;;3.48;81.75;98799.03;4974403;28;20128;-81
2021/04/17 08:40:32;;;;;;;61.38;28.02;;;;;;;3.46;82.56;98800.34;4982540;28;20478;-81
2021/04/17 08:42:59;;;;;;;73.60;31.45;;;;;;;3.49;82.05;98792.53;4982552;28;20433;-81
2021/04/17 08:45:25;;;;;;;104.57;38.58;;;;;;;3.53;82.72;98793.72;4982518;28;20117;-80
2021/04/17 08:47:56;;;;;;;82.95;29.55;;;;;;;3.55;82.13;98794.28;4982884;28;20930;-81
2021/04/17 08:50:33;;;;;;;42.33;19.08;;;;;;;3.50;82.38;98794.19;4983255;28;20065;-80
2021/04/17 08:53:11;;;;;;;44.13;20.38;;;;;;;3.48;81.53;98793.63;4977519;28;20034;-80
2021/04/17 08:55:36;;;;;;;45.45;21.58;;;;;;;3.51;82.31;98795.84;4973276;28;20030;-80
2021/04/17 08:58:24;;;;;;;51.03;24.58;;;;;;;3.57;82.24;98796.78;4973625;28;20022;-80
2021/04/17 09:00:52;;;;;;;64.80;27.20;;;;;;;3.61;82.17;98797.13;4984572;28;20517;-79
2021/04/17 09:03:42;;;;;;;45.67;20.33;;;;;;;3.60;82.17;98795.47;4984541;28;20402;-80
2021/04/17 09:06:09;;;;;;;;;;;;;;;3.61;82.51;98787.09;4983319;28;20686;-79
2021/04/17 09:08:38;;;;;;;43.25;19.50;;;;;;;3.63;82.16;98787.69;4982867;28;19979;-79
2021/04/17 09:11:32;;;;;;;48.72;22.13;;;;;;;3.61;81.91;98803.38;4966196;28;20034;-79
2021/04/17 09:13:58;;;;;;;56.00;27.00;;;;;;;3.66;82.21;98798.06;4981599;28;20111;-79
2021/04/17 09:16:39;;;;;;;37.47;18.05;;;;;;;3.69;81.93;98792.13;4974420;28;20473;-79
2021/04/17 09:19:05;;;;;;;26.60;14.68;;;;;;;3.66;81.68;98795.34;4972452;28;20045;-79
2021/04/17 09:21:32;;;;;;;42.95;21.48;;;;;;;3.64;81.21;98793.91;4982048;28;20034;-80
2021/04/17 09:23:59;;;;;;;21.60;13.35;;;;;;;3.62;81.38;98793.34;4981475;28;20501;-82
2021/04/17 09:26:30;;;;;;;43.92;20.33;;;;;;;3.61;81.64;98797.94;4980705;28;20113;-80
2021/04/17 09:29:03;;;;;;;39.58;19.80;;;;;;;3.68;81.82;98805.94;4982707;28;20077;-80
2021/04/17 09:31:37;;;;;;;55.78;25.65;;;;;;;3.73;81.46;98795.19;4982349;28;20038;-80
2021/04/17 09:34:09;;;;;;;48.40;22.77;;;;;;;3.87;82.32;98799.22;4987777;28;20039;-80
2021/04/17 09:36:35;;;;;;;41.47;20.10;;;;;;;3.92;81.70;98803.09;4978769;28;21257;-80
2021/04/17 09:39:02;;;;;;;33.65;17.60;;;;;;;3.88;81.40;98803.59;4976527;28;20037;-80
2021/04/17 09:41:50;;;;;;;35.20;18.98;;;;;;;3.83;81.56;98805.38;4979019;28;20040;-81
2021/04/17 09:44:15;;;;;;;35.13;17.05;;;;;;;3.84;81.13;98798.91;4981364;28;20034;-80
2021/04/17 09:46:40;;;;;;;37.65;19.10;;;;;;;3.86;81.52;98803.03;4965856;28;20033;-81
2021/04/17 09:49:06;;;;;;;42.55;21.08;;;;;;;3.91;81.88;98794.16;4985037;28;20979;-80
2021/04/17 09:51:31;;;;;;;40.97;20.88;;;;;;;3.90;81.54;98795.22;4988620;28;20105;-80
2021/04/17 09:54:02;;;;;;;33.15;17.23;;;;;;;3.94;81.86;98781.97;4982299;28;20084;-81
2021/04/17 09:56:30;;;;;;;38.47;19.60;;;;;;;3.99;81.60;98792.91;4984308;28;20475;-80
2021/04/17 09:58:58;;;;;;;37.53;19.15;;;;;;;3.98;81.38;98793.97;4977310;28;20113;-80
2021/04/17 10:01:24;;;;;;;48.72;23.17;;;;;;;3.91;81.44;98793.31;4977104;28;20034;-80
2021/04/17 10:04:01;;;;;;;43.92;21.05;;;;;;;3.83;81.47;98798.09;4981351;28;20031;-81
2021/04/17 10:06:30;;;;;;;56.28;25.67;;;;;;;3.75;81.45;98784.06;4980902;28;20050;-82
2021/04/17 10:09:18;;;;;;;53.75;22.77;;;;;;;3.74;81.24;98794.13;4983653;28;20096;-80
2021/04/17 10:11:45;;;;;;;35.40;15.95;;;;;;;3.69;81.65;98788.59;4964563;28;20489;-81
2021/04/17 10:14:12;;;;;;;27.90;13.85;;;;;;;3.68;81.24;98787.75;4981105;28;20113;-81
2021/04/17 10:16:41;;;;;;;39.35;18.80;;;;;;;3.65;81.68;98790.13;4984113;28;20084;-80
2021/04/17 10:19:17;;;;;;;40.53;20.70;;;;;;;3.64;81.80;98785.78;4974463;28;20054;-80
2021/04/17 10:21:46;;;;;;;56.83;24.95;;;;;;;3.65;81.42;98787.44;4971769;28;20054;-80
2021/04/17 10:24:23;;;;;;;64.35;27.08;;;;;;;3.69;81.75;98780.44;4978958;28;20062;-81
2021/04/17 10:27:14;;;;;;;31.98;17.02;;;;;;;3.67;81.40;98783.38;4981499;28;20741;-81
2021/04/17 10:29:51;;;;;;;36.97;18.70;;;;;;;3.67;81.60;98779.88;4986037;28;20487;-80
2021/04/17 10:32:28;;;;;;;35.10;17.80;;;;;;;3.69;81.92;98785.88;4981687;28;20053;-81
2021/04/17 10:35:08;;;;;;;41.92;20.02;;;;;;;3.69;81.66;98777.75;4980965;28;20038;-82
2021/04/17 10:37:44;;;;;;;42.45;19.50;;;;;;;3.73;81.38;98779.72;4983164;28;20026;-80
2021/04/17 10:40:13;;;;;;;50.00;24.35;;;;;;;3.75;82.17;98779.47;4975489;28;20039;-80
2021/04/17 10:42:54;;;;;;;48.58;23.30;;;;;;;3.80;81.39;98782.28;4977881;28;20826;-81
2021/04/17 10:45:24;;;;;;;43.00;20.33;;;;;;;3.91;81.91;98782.44;4983440;28;20081;-80
2021/04/17 10:47:59;;;;;;;43.28;20.77;;;;;;;3.91;82.12;98786.00;4986067;28;20494;-80
2021/04/17 10:50:27;;;;;;;52.05;22.92;;;;;;;3.93;81.37;98781.16;4985174;28;20104;-80
2021/04/17 10:53:06;;;;;;;35.80;17.23;;;;;;;3.93;81.52;98780.31;4988423;28;20109;-80
2021/04/17 10:55:36;;;;;;;40.47;21.70;;;;;;;3.95;81.98;98778.19;4980420;28;20045;-80
2021/04/17 10:58:02;;;;;;;37.78;19.42;;;;;;;3.91;81.29;98787.88;4984079;28;20042;-80
2021/04/17 11:00:30;;;;;;;37.15;19.13;;;;;;;3.94;81.22;98782.81;4978176;28;20037;-80
2021/04/17 11:02:56;;;;;;;25.70;15.35;;;;;;;3.92;81.82;98778.69;4976972;28;20030;-80
2021/04/17 11:05:22;;;;;;;29.23;17.13;;;;;;;3.80;80.94;98782.28;4977336;28;20143;-81
2021/04/17 11:07:57;;;;;;;35.70;20.02;;;;;;;3.81;81.72;98785.81;4983425;28;20056;-80
2021/04/17 11:10:29;;;;;;;46.25;22.73;;;;;;;3.93;81.88;98774.91;4980102;28;20609;-80
2021/04/17 11:12:54;;;;;;;35.30;18.92;;;;;;;4.02;82.17;98779.69;4988746;28;20497;-80
2021/04/17 11:15:27;;;;;;;66.63;34.72;;;;;;;4.02;81.57;98771.56;4984502;28;20040;-80
2021/04/17 11:18:12;;;;;;;33.42;18.95;;;;;;;4.10;82.12;98774.91;4989183;28;20148;-80
2021/04/17 11:20:49;;;;;;;78.88;38.78;;;;;;;4.07;81.07;98780.84;4981847;28;20094;-80
2021/04/17 11:23:35;;;;;;;47.70;20.10;;;;;;;4.04;81.36;98774.00;4975100;28;20049;-79
2021/04/17 11:26:09;;;;;;;42.55;20.00;;;;;;;4.12;81.36;98778.19;4977316;28;20478;-79
2021/04/17 11:28:35;;;;;;;55.75;20.35;;;;;;;4.12;81.45;98773.59;4994875;28;20030;-81
2021/04/17 11:31:01;;;;;;;50.97;19.73;;;;;;;4.10;81.46;98780.34;5011565;28;20112;-79
2021/04/17 11:33:27;;;;;;;45.85;21.10;;;;;;;4.06;81.82;98776.50;5011463;28;20424;-79
2021/04/17 11:35:53;;;;;;;46.75;21.30;;;;;;;4.02;81.18;98782.41;5010815;28;20029;-79